Dillon, CO

6:04 PM MDT on September 02, 2015 (GMT -0600)
Corinthian Hill | | Change Station
CLOSE
Current Station
Personal Weather Station
Location: Dillon, CO
Elevation: 9239 ft
Nearby Weather Stations

Elev 9239 ft 39.62 °N, 106.03 °W | Updated 4 minutes ago

Overcast
Overcast
68.7 °F
Feels Like 68.7 °F
N
3.4
Wind Variable Wind from NW
Gusts 9.2 mph

Today
High -- | Low -- °F
--% Chance of Precip.
Yesterday
High -- | Low -- °F
Precip. -- in
6:33 AM 7:33 PM
Waning Gibbous, 76% visible
Pressure 30.40 in
Visibility 10.0 miles
Clouds Mostly Cloudy 7000 ft
Overcast 9000 ft
Dew Point 32.5 °F
Humidity 26%
Rainfall 0.00 in
Snow Depth Not available.
UV 0 out of 12
Pollen 10.50 out of 12
Air Quality Not available.
Flu Activity Not available.
SPECI KLXV 030002Z AUTO 24015G21KT 10SM -TSRA BKN070 OVC090 14/03 A3040 RMK AO2 RAB00 TSB2356 P0000 T01440033
Pressure 30.40 in
Visibility 10.0 miles
Clouds Mostly Cloudy 7000 ft
Overcast 9000 ft
Dew Point 32.5 °F
Humidity 26%
Rainfall 0.00 in
Snow Depth Not available.
UV 0 out of 12
Pollen 10.50 out of 12
Air Quality Not available.
Flu Activity Not available.
SPECI KLXV 030002Z AUTO 24015G21KT 10SM -TSRA BKN070 OVC090 14/03 A3040 RMK AO2 RAB00 TSB2356 P0000 T01440033

10-Day Weather Forecast

×

Almanac

Astronomy

Sep. 02, 2015 Rise Set
Actual Time
Civil Twilight
Nautical Twilight
Astronomical Twilight
Moon
Length of Visible Light
Length of Day
Tomorrow will be .
, % of the Moon is Illuminated

Today's Extremes

State Highs State Lows

Community

WunderPhotos

Upload Photos

1,851,846 photos uploaded!

WunderBlogs® & News

Nearby

Air Quality

  Air Quality AQ Index Pollutant
Not available.

Snow Depth

Station Depth Elevation

Earthquake Activity

City Distance Mag. Time & Date
Minimum magnitude displayed is 2.5.

Coastal Water Temperatures

Place Temperature

Stations

Nearby Weather Stations

Station Location Temp. Windchill Dew Point Humidity Wind Precip. Elev Updated Type